sensor_id;sensor_type;location;lat;lon;timestamp;pressure;altitude;pressure_sealevel;temperature;humidity
74578;BME280;63173;49.086;33.418;2023-04-15T00:00:26;100684.22;;;6.76;88.91
74578;BME280;63173;49.086;33.418;2023-04-15T00:02:53;100683.00;;;6.66;89.16
74578;BME280;63173;49.086;33.418;2023-04-15T00:05:19;100682.50;;;6.70;89.43
74578;BME280;63173;49.086;33.418;2023-04-15T00:07:45;100695.22;;;6.74;89.44
74578;BME280;63173;49.086;33.418;2023-04-15T00:10:11;100690.34;;;6.71;89.34
74578;BME280;63173;49.086;33.418;2023-04-15T00:12:37;100695.31;;;6.79;89.28
74578;BME280;63173;49.086;33.418;2023-04-15T00:15:02;100694.22;;;6.80;89.14
74578;BME280;63173;49.086;33.418;2023-04-15T00:17:28;100692.88;;;6.56;89.31
74578;BME280;63173;49.086;33.418;2023-04-15T00:19:54;100691.00;;;6.56;89.67
74578;BME280;63173;49.086;33.418;2023-04-15T00:22:19;100689.72;;;6.64;90.09
74578;BME280;63173;49.086;33.418;2023-04-15T00:24:44;100695.50;;;6.73;89.46
74578;BME280;63173;49.086;33.418;2023-04-15T00:27:10;100695.75;;;6.71;89.32
74578;BME280;63173;49.086;33.418;2023-04-15T00:29:35;100685.66;;;6.61;89.65
74578;BME280;63173;49.086;33.418;2023-04-15T00:32:01;100691.03;;;6.61;90.10
74578;BME280;63173;49.086;33.418;2023-04-15T00:34:27;100691.28;;;6.82;89.54
74578;BME280;63173;49.086;33.418;2023-04-15T00:36:53;100696.69;;;6.60;89.83
74578;BME280;63173;49.086;33.418;2023-04-15T00:39:19;100689.34;;;6.55;90.53
74578;BME280;63173;49.086;33.418;2023-04-15T00:41:45;100675.84;;;6.55;89.58
74578;BME280;63173;49.086;33.418;2023-04-15T00:44:10;100676.38;;;6.52;90.46
74578;BME280;63173;49.086;33.418;2023-04-15T00:46:37;100686.84;;;6.49;89.76
74578;BME280;63173;49.086;33.418;2023-04-15T00:49:04;100682.19;;;6.44;90.68
74578;BME280;63173;49.086;33.418;2023-04-15T00:51:30;100677.72;;;6.55;90.49
74578;BME280;63173;49.086;33.418;2023-04-15T00:53:58;100679.19;;;6.41;91.32
74578;BME280;63173;49.086;33.418;2023-04-15T00:56:24;100675.22;;;6.48;91.02
74578;BME280;63173;49.086;33.418;2023-04-15T00:58:50;100679.63;;;6.54;90.64
74578;BME280;63173;49.086;33.418;2023-04-15T01:01:19;100677.22;;;6.36;90.57
74578;BME280;63173;49.086;33.418;2023-04-15T01:03:46;100669.22;;;6.41;91.07
74578;BME280;63173;49.086;33.418;2023-04-15T01:06:12;100668.38;;;6.41;91.00
74578;BME280;63173;49.086;33.418;2023-04-15T01:08:38;100661.31;;;6.56;90.45
74578;BME280;63173;49.086;33.418;2023-04-15T01:11:04;100661.03;;;6.58;89.85
74578;BME280;63173;49.086;33.418;2023-04-15T01:13:30;100669.56;;;6.50;89.93
74578;BME280;63173;49.086;33.418;2023-04-15T01:15:57;100668.13;;;6.42;90.40
74578;BME280;63173;49.086;33.418;2023-04-15T01:18:23;100666.06;;;6.49;91.09
74578;BME280;63173;49.086;33.418;2023-04-15T01:20:49;100667.88;;;6.65;89.65
74578;BME280;63173;49.086;33.418;2023-04-15T01:23:14;100665.22;;;6.27;90.41
74578;BME280;63173;49.086;33.418;2023-04-15T01:25:42;100660.59;;;6.44;90.22
74578;BME280;63173;49.086;33.418;2023-04-15T01:28:08;100655.78;;;6.46;90.48
74578;BME280;63173;49.086;33.418;2023-04-15T01:30:34;100670.66;;;6.49;90.73
74578;BME280;63173;49.086;33.418;2023-04-15T01:33:00;100668.44;;;6.24;90.33
74578;BME280;63173;49.086;33.418;2023-04-15T01:35:25;100674.97;;;6.50;90.87
74578;BME280;63173;49.086;33.418;2023-04-15T01:37:51;100681.63;;;6.42;91.08
74578;BME280;63173;49.086;33.418;2023-04-15T01:40:18;100683.69;;;6.35;91.51
74578;BME280;63173;49.086;33.418;2023-04-15T01:42:44;100688.44;;;6.28;91.26
74578;BME280;63173;49.086;33.418;2023-04-15T01:45:10;100701.50;;;6.36;91.01
74578;BME280;63173;49.086;33.418;2023-04-15T01:47:35;100695.63;;;6.39;90.69
74578;BME280;63173;49.086;33.418;2023-04-15T01:50:00;100704.50;;;6.40;91.11
74578;BME280;63173;49.086;33.418;2023-04-15T01:52:26;100691.91;;;6.45;90.42
74578;BME280;63173;49.086;33.418;2023-04-15T01:54:51;100694.00;;;6.60;91.21
74578;BME280;63173;49.086;33.418;2023-04-15T01:57:17;100690.84;;;6.46;90.07
74578;BME280;63173;49.086;33.418;2023-04-15T01:59:42;100679.53;;;6.49;91.24
74578;BME280;63173;49.086;33.418;2023-04-15T02:02:08;100686.38;;;6.57;91.04
74578;BME280;63173;49.086;33.418;2023-04-15T02:04:33;100696.19;;;6.41;91.15
74578;BME280;63173;49.086;33.418;2023-04-15T02:06:59;100700.09;;;6.50;90.65
74578;BME280;63173;49.086;33.418;2023-04-15T02:09:24;100695.63;;;6.39;91.20
74578;BME280;63173;49.086;33.418;2023-04-15T02:11:51;100699.78;;;6.30;91.09
74578;BME280;63173;49.086;33.418;2023-04-15T02:14:18;100700.34;;;6.32;91.74
74578;BME280;63173;49.086;33.418;2023-04-15T02:16:44;100705.59;;;6.39;91.59
74578;BME280;63173;49.086;33.418;2023-04-15T02:19:09;100701.50;;;6.36;90.51
74578;BME280;63173;49.086;33.418;2023-04-15T02:21:34;100711.66;;;6.29;90.70
74578;BME280;63173;49.086;33.418;2023-04-15T02:24:00;100716.16;;;6.24;90.77
74578;BME280;63173;49.086;33.418;2023-04-15T02:26:26;100717.94;;;6.35;91.31
74578;BME280;63173;49.086;33.418;2023-04-15T02:28:52;100714.19;;;6.19;90.68
74578;BME280;63173;49.086;33.418;2023-04-15T02:31:17;100719.25;;;6.32;91.16
74578;BME280;63173;49.086;33.418;2023-04-15T02:33:43;100723.06;;;6.15;91.38
74578;BME280;63173;49.086;33.418;2023-04-15T02:36:09;100722.63;;;6.23;89.81
74578;BME280;63173;49.086;33.418;2023-04-15T02:38:36;100727.66;;;5.98;91.28
74578;BME280;63173;49.086;33.418;2023-04-15T02:41:02;100728.34;;;6.10;90.74
74578;BME280;63173;49.086;33.418;2023-04-15T02:43:28;100740.50;;;6.29;89.24
74578;BME280;63173;49.086;33.418;2023-04-15T02:45:54;100731.59;;;6.28;90.29
74578;BME280;63173;49.086;33.418;2023-04-15T02:48:20;100727.78;;;6.24;89.26
74578;BME280;63173;49.086;33.418;2023-04-15T02:50:46;100724.34;;;6.12;89.60
74578;BME280;63173;49.086;33.418;2023-04-15T02:53:12;100726.69;;;6.25;89.45
74578;BME280;63173;49.086;33.418;2023-04-15T02:55:38;100735.97;;;6.13;89.64
74578;BME280;63173;49.086;33.418;2023-04-15T02:58:04;100734.94;;;6.35;89.95
74578;BME280;63173;49.086;33.418;2023-04-15T03:00:29;100745.94;;;6.12;90.36
74578;BME280;63173;49.086;33.418;2023-04-15T03:03:02;100743.03;;;6.35;89.08
74578;BME280;63173;49.086;33.418;2023-04-15T03:05:27;100742.50;;;6.00;91.29
74578;BME280;63173;49.086;33.418;2023-04-15T03:07:53;100746.31;;;6.21;89.64
74578;BME280;63173;49.086;33.418;2023-04-15T03:10:19;100746.56;;;6.19;90.26
74578;BME280;63173;49.086;33.418;2023-04-15T03:12:45;100753.22;;;5.95;91.56
74578;BME280;63173;49.086;33.418;2023-04-15T03:15:10;100754.28;;;6.11;90.93
74578;BME280;63173;49.086;33.418;2023-04-15T03:17:36;100758.13;;;6.15;91.13
74578;BME280;63173;49.086;33.418;2023-04-15T03:20:02;100765.53;;;6.08;91.12
74578;BME280;63173;49.086;33.418;2023-04-15T03:22:29;100766.22;;;6.15;91.21
74578;BME280;63173;49.086;33.418;2023-04-15T03:24:55;100776.00;;;6.21;90.43
74578;BME280;63173;49.086;33.418;2023-04-15T03:27:21;100769.53;;;6.22;91.35
74578;BME280;63173;49.086;33.418;2023-04-15T03:29:46;100774.69;;;6.23;91.03
74578;BME280;63173;49.086;33.418;2023-04-15T03:32:11;100774.69;;;6.23;90.71
74578;BME280;63173;49.086;33.418;2023-04-15T03:34:39;100775.09;;;6.32;90.12
74578;BME280;63173;49.086;33.418;2023-04-15T03:37:05;100781.72;;;6.24;90.74
74578;BME280;63173;49.086;33.418;2023-04-15T03:39:30;100775.31;;;6.47;90.72
74578;BME280;63173;49.086;33.418;2023-04-15T03:41:56;100783.28;;;6.20;90.62
74578;BME280;63173;49.086;33.418;2023-04-15T03:44:22;100780.09;;;6.23;90.64
74578;BME280;63173;49.086;33.418;2023-04-15T03:46:47;100788.59;;;6.32;91.31
74578;BME280;63173;49.086;33.418;2023-04-15T03:49:12;100791.09;;;6.38;90.27
74578;BME280;63173;49.086;33.418;2023-04-15T03:51:38;100795.94;;;6.20;90.29
74578;BME280;63173;49.086;33.418;2023-04-15T03:54:03;100788.25;;;6.28;90.60
74578;BME280;63173;49.086;33.418;2023-04-15T03:56:29;100793.75;;;6.33;90.10
74578;BME280;63173;49.086;33.418;2023-04-15T03:58:54;100796.38;;;6.66;89.69
74578;BME280;63173;49.086;33.418;2023-04-15T04:01:20;100796.44;;;6.33;90.63
74578;BME280;63173;49.086;33.418;2023-04-15T04:03:46;100801.25;;;6.31;89.99
74578;BME280;63173;49.086;33.418;2023-04-15T04:06:11;100806.09;;;6.29;90.05
74578;BME280;63173;49.086;33.418;2023-04-15T04:08:37;100811.78;;;6.33;90.38
74578;BME280;63173;49.086;33.418;2023-04-15T04:11:03;100815.78;;;6.30;90.50
74578;BME280;63173;49.086;33.418;2023-04-15T04:13:28;100808.84;;;6.51;89.67
74578;BME280;63173;49.086;33.418;2023-04-15T04:15:54;100815.53;;;6.65;88.45
74578;BME280;63173;49.086;33.418;2023-04-15T04:18:20;100810.50;;;6.35;89.28
74578;BME280;63173;49.086;33.418;2023-04-15T04:20:45;100810.97;;;6.32;89.10
74578;BME280;63173;49.086;33.418;2023-04-15T04:23:11;100812.69;;;6.38;89.76
74578;BME280;63173;49.086;33.418;2023-04-15T04:25:36;100815.22;;;6.28;89.58
74578;BME280;63173;49.086;33.418;2023-04-15T04:28:02;100806.47;;;6.54;88.86
74578;BME280;63173;49.086;33.418;2023-04-15T04:30:27;100815.63;;;6.37;90.02
74578;BME280;63173;49.086;33.418;2023-04-15T04:32:53;100824.91;;;6.24;90.56
74578;BME280;63173;49.086;33.418;2023-04-15T04:35:18;100808.59;;;6.36;90.79
74578;BME280;63173;49.086;33.418;2023-04-15T04:37:44;100806.09;;;6.29;89.71
74578;BME280;63173;49.086;33.418;2023-04-15T04:40:10;100801.72;;;6.28;89.53
74578;BME280;63173;49.086;33.418;2023-04-15T04:42:36;100793.91;;;6.10;90.57
74578;BME280;63173;49.086;33.418;2023-04-15T04:45:01;100793.41;;;6.13;90.87
74578;BME280;63173;49.086;33.418;2023-04-15T04:47:27;100795.94;;;6.20;91.21
74578;BME280;63173;49.086;33.418;2023-04-15T04:49:52;100796.13;;;6.30;91.51
74578;BME280;63173;49.086;33.418;2023-04-15T04:52:17;100792.78;;;6.61;89.02
74578;BME280;63173;49.086;33.418;2023-04-15T04:54:43;100797.56;;;6.37;89.76
74578;BME280;63173;49.086;33.418;2023-04-15T04:57:08;100791.84;;;6.17;89.90
74578;BME280;63173;49.086;33.418;2023-04-15T04:59:34;100801.66;;;6.23;90.16
74578;BME280;63173;49.086;33.418;2023-04-15T05:01:59;100804.63;;;6.22;89.85
74578;BME280;63173;49.086;33.418;2023-04-15T05:04:25;100804.69;;;6.10;90.39
74578;BME280;63173;49.086;33.418;2023-04-15T05:06:50;100801.41;;;6.25;90.40
74578;BME280;63173;49.086;33.418;2023-04-15T05:09:16;100804.94;;;6.25;90.80
74578;BME280;63173;49.086;33.418;2023-04-15T05:11:41;100801.66;;;6.23;90.51
74578;BME280;63173;49.086;33.418;2023-04-15T05:14:07;100805.50;;;6.27;90.60
74578;BME280;63173;49.086;33.418;2023-04-15T05:16:32;100801.00;;;6.33;89.66
74578;BME280;63173;49.086;33.418;2023-04-15T05:18:57;100806.97;;;6.35;89.34
74578;BME280;63173;49.086;33.418;2023-04-15T05:21:23;100796.50;;;6.38;89.65
74578;BME280;63173;49.086;33.418;2023-04-15T05:23:48;100798.41;;;6.21;90.52
74578;BME280;63173;49.086;33.418;2023-04-15T05:26:14;100802.41;;;6.35;89.53
74578;BME280;63173;49.086;33.418;2023-04-15T05:28:39;100807.72;;;6.47;88.87
74578;BME280;63173;49.086;33.418;2023-04-15T05:31:05;100813.09;;;6.47;88.84
74578;BME280;63173;49.086;33.418;2023-04-15T05:33:31;100820.19;;;6.53;87.74
74578;BME280;63173;49.086;33.418;2023-04-15T05:35:57;100809.25;;;6.43;86.59
74578;BME280;63173;49.086;33.418;2023-04-15T05:38:22;100826.09;;;6.33;86.40
74578;BME280;63173;49.086;33.418;2023-04-15T05:40:48;100826.25;;;6.27;87.43
74578;BME280;63173;49.086;33.418;2023-04-15T05:43:13;100823.72;;;6.37;86.73
74578;BME280;63173;49.086;33.418;2023-04-15T05:45:39;100831.56;;;6.55;84.84
74578;BME280;63173;49.086;33.418;2023-04-15T05:48:04;100837.88;;;6.27;86.18
74578;BME280;63173;49.086;33.418;2023-04-15T05:50:30;100831.41;;;5.95;86.63
74578;BME280;63173;49.086;33.418;2023-04-15T05:52:56;100847.38;;;6.30;86.78
74578;BME280;63173;49.086;33.418;2023-04-15T05:55:21;100847.38;;;6.30;86.68
74578;BME280;63173;49.086;33.418;2023-04-15T05:57:46;100849.88;;;6.36;86.72
74578;BME280;63173;49.086;33.418;2023-04-15T06:00:12;100864.22;;;6.20;86.74
74578;BME280;63173;49.086;33.418;2023-04-15T06:02:38;100862.91;;;6.39;85.77
74578;BME280;63173;49.086;33.418;2023-04-15T06:05:04;100864.22;;;6.20;86.18
74578;BME280;63173;49.086;33.418;2023-04-15T06:07:37;100866.47;;;6.28;86.32
74578;BME280;63173;49.086;33.418;2023-04-15T06:10:05;100881.69;;;6.34;87.41
74578;BME280;63173;49.086;33.418;2023-04-15T06:12:31;100875.91;;;6.26;86.42
74578;BME280;63173;49.086;33.418;2023-04-15T06:14:57;100867.69;;;6.21;86.49
74578;BME280;63173;49.086;33.418;2023-04-15T06:17:22;100868.88;;;6.41;85.00
74578;BME280;63173;49.086;33.418;2023-04-15T06:19:47;100868.13;;;6.29;85.87
74578;BME280;63173;49.086;33.418;2023-04-15T06:22:14;100876.41;;;6.39;85.55
74578;BME280;63173;49.086;33.418;2023-04-15T06:24:40;100875.56;;;6.22;84.66
74578;BME280;63173;49.086;33.418;2023-04-15T06:27:06;100875.31;;;6.24;84.57
74578;BME280;63173;49.086;33.418;2023-04-15T06:29:31;100871.63;;;6.13;85.39
74578;BME280;63173;49.086;33.418;2023-04-15T06:31:57;100880.97;;;6.22;85.99
74578;BME280;63173;49.086;33.418;2023-04-15T06:34:22;100878.91;;;6.29;86.23
74578;BME280;63173;49.086;33.418;2023-04-15T06:36:47;100887.91;;;6.51;85.60
74578;BME280;63173;49.086;33.418;2023-04-15T06:39:13;100889.94;;;6.11;86.73
74578;BME280;63173;49.086;33.418;2023-04-15T06:41:38;100886.38;;;6.22;86.99
74578;BME280;63173;49.086;33.418;2023-04-15T06:44:04;100881.94;;;6.33;87.12
74578;BME280;63173;49.086;33.418;2023-04-15T06:46:29;100888.50;;;6.37;87.01
74578;BME280;63173;49.086;33.418;2023-04-15T06:48:58;100901.63;;;6.17;85.81
74578;BME280;63173;49.086;33.418;2023-04-15T06:51:23;100898.97;;;6.50;85.43
74578;BME280;63173;49.086;33.418;2023-04-15T06:53:48;100899.44;;;6.30;85.50
74578;BME280;63173;49.086;33.418;2023-04-15T06:56:14;100900.81;;;6.49;84.97
74578;BME280;63173;49.086;33.418;2023-04-15T06:58:39;100897.16;;;6.22;86.03
74578;BME280;63173;49.086;33.418;2023-04-15T07:01:05;100910.31;;;6.35;85.38
74578;BME280;63173;49.086;33.418;2023-04-15T07:03:31;100912.63;;;6.43;84.91
74578;BME280;63173;49.086;33.418;2023-04-15T07:05:56;100920.69;;;6.27;84.82
74578;BME280;63173;49.086;33.418;2023-04-15T07:08:22;100919.22;;;6.36;84.33
74578;BME280;63173;49.086;33.418;2023-04-15T07:10:48;100922.09;;;6.46;83.41
74578;BME280;63173;49.086;33.418;2023-04-15T07:13:13;100922.16;;;6.34;83.77
74578;BME280;63173;49.086;33.418;2023-04-15T07:15:39;100919.56;;;6.56;82.79
74578;BME280;63173;49.086;33.418;2023-04-15T07:18:04;100916.63;;;6.57;83.16
74578;BME280;63173;49.086;33.418;2023-04-15T07:20:30;100922.09;;;6.62;83.87
74578;BME280;63173;49.086;33.418;2023-04-15T07:22:55;100915.22;;;6.55;83.17
74578;BME280;63173;49.086;33.418;2023-04-15T07:25:21;100914.31;;;6.49;83.86
74578;BME280;63173;49.086;33.418;2023-04-15T07:27:47;100926.66;;;6.45;83.32
74578;BME280;63173;49.086;33.418;2023-04-15T07:30:12;100928.13;;;6.53;83.83
74578;BME280;63173;49.086;33.418;2023-04-15T07:32:38;100922.03;;;6.41;83.64
74578;BME280;63173;49.086;33.418;2023-04-15T07:35:04;100922.91;;;6.46;83.67
74578;BME280;63173;49.086;33.418;2023-04-15T07:37:29;100926.63;;;6.74;84.11
74578;BME280;63173;49.086;33.418;2023-04-15T07:39:55;100915.97;;;6.50;83.88
74578;BME280;63173;49.086;33.418;2023-04-15T07:42:20;100921.38;;;6.50;84.68
74578;BME280;63173;49.086;33.418;2023-04-15T07:44:46;100917.78;;;6.61;84.10
74578;BME280;63173;49.086;33.418;2023-04-15T07:47:11;100923.63;;;6.42;84.68
74578;BME280;63173;49.086;33.418;2023-04-15T07:49:37;100922.41;;;6.49;84.03
74578;BME280;63173;49.086;33.418;2023-04-15T07:52:02;100928.56;;;6.61;83.16
74578;BME280;63173;49.086;33.418;2023-04-15T07:54:28;100926.19;;;6.48;83.86
74578;BME280;63173;49.086;33.418;2023-04-15T07:56:53;100933.78;;;6.51;84.10
74578;BME280;63173;49.086;33.418;2023-04-15T07:59:20;100941.41;;;6.54;84.20
74578;BME280;63173;49.086;33.418;2023-04-15T08:01:45;100930.28;;;6.68;83.48
74578;BME280;63173;49.086;33.418;2023-04-15T08:04:11;100930.69;;;6.59;83.80
74578;BME280;63173;49.086;33.418;2023-04-15T08:06:36;100934.78;;;6.62;83.74
74578;BME280;63173;49.086;33.418;2023-04-15T08:09:04;100927.75;;;6.61;83.85
74578;BME280;63173;49.086;33.418;2023-04-15T08:11:29;100931.91;;;6.68;83.16
74578;BME280;63173;49.086;33.418;2023-04-15T08:13:56;100933.13;;;6.78;83.44
74578;BME280;63173;49.086;33.418;2023-04-15T08:16:23;100937.88;;;6.87;82.51
74578;BME280;63173;49.086;33.418;2023-04-15T08:18:51;100923.16;;;6.78;82.66
74578;BME280;63173;49.086;33.418;2023-04-15T08:21:18;100927.59;;;6.51;83.20
74578;BME280;63173;49.086;33.418;2023-04-15T08:23:45;100940.19;;;6.79;83.44
74578;BME280;63173;49.086;33.418;2023-04-15T08:26:11;100944.03;;;6.83;83.46
74578;BME280;63173;49.086;33.418;2023-04-15T08:28:39;100938.47;;;6.56;83.76
74578;BME280;63173;49.086;33.418;2023-04-15T08:31:05;100928.47;;;6.90;83.50
74578;BME280;63173;49.086;33.418;2023-04-15T08:33:30;100923.81;;;6.52;83.47
74578;BME280;63173;49.086;33.418;2023-04-15T08:35:56;100933.47;;;6.81;82.19
74578;BME280;63173;49.086;33.418;2023-04-15T08:38:22;100932.47;;;6.71;82.53
74578;BME280;63173;49.086;33.418;2023-04-15T08:40:48;100942.16;;;6.83;81.49
74578;BME280;63173;49.086;33.418;2023-04-15T08:43:38;100936.75;;;6.83;82.36
74578;BME280;63173;49.086;33.418;2023-04-15T08:46:09;100928.84;;;7.15;81.67
74578;BME280;63173;49.086;33.418;2023-04-15T08:48:37;100935.28;;;6.92;81.42
74578;BME280;63173;49.086;33.418;2023-04-15T08:51:05;100936.16;;;6.64;82.60
74578;BME280;63173;49.086;33.418;2023-04-15T08:53:31;100937.72;;;6.94;82.63
74578;BME280;63173;49.086;33.418;2023-04-15T08:55:58;100938.94;;;7.03;81.96
74578;BME280;63173;49.086;33.418;2023-04-15T08:58:28;100948.84;;;6.97;82.96
74578;BME280;63173;49.086;33.418;2023-04-15T09:00:55;100941.88;;;7.01;82.99
74578;BME280;63173;49.086;33.418;2023-04-15T09:03:21;100957.19;;;6.96;83.75
74578;BME280;63173;49.086;33.418;2023-04-15T09:05:48;100948.34;;;7.17;81.88
74578;BME280;63173;49.086;33.418;2023-04-15T09:08:14;100952.28;;;6.93;82.30
74578;BME280;63173;49.086;33.418;2023-04-15T09:10:40;100953.56;;;7.07;81.50
74578;BME280;63173;49.086;33.418;2023-04-15T09:13:06;100951.91;;;7.22;82.77
74578;BME280;63173;49.086;33.418;2023-04-15T09:15:32;100954.81;;;6.99;81.89
74578;BME280;63173;49.086;33.418;2023-04-15T09:17:57;100948.25;;;7.12;80.95
74578;BME280;63173;49.086;33.418;2023-04-15T09:20:23;100945.06;;;7.36;81.56
74578;BME280;63173;49.086;33.418;2023-04-15T09:22:49;100955.44;;;7.23;80.67
74578;BME280;63173;49.086;33.418;2023-04-15T09:27:57;100952.63;;;6.96;81.48
74578;BME280;63173;49.086;33.418;2023-04-15T09:30:23;100940.34;;;7.27;80.58
74578;BME280;63173;49.086;33.418;2023-04-15T09:32:53;100933.94;;;7.33;81.34
74578;BME280;63173;49.086;33.418;2023-04-15T09:35:20;100944.28;;;7.19;81.23
74578;BME280;63173;49.086;33.418;2023-04-15T09:37:47;100941.38;;;7.42;80.22
74578;BME280;63173;49.086;33.418;2023-04-15T09:40:12;100942.91;;;7.55;79.63
74578;BME280;63173;49.086;33.418;2023-04-15T09:42:54;100941.84;;;7.56;79.64
74578;BME280;63173;49.086;33.418;2023-04-15T09:45:21;100947.59;;;7.86;79.69
74578;BME280;63173;49.086;33.418;2023-04-15T09:47:46;100939.63;;;7.53;79.84
74578;BME280;63173;49.086;33.418;2023-04-15T09:50:12;100948.75;;;7.47;79.70
74578;BME280;63173;49.086;33.418;2023-04-15T09:52:42;100967.25;;;7.55;80.35
74578;BME280;63173;49.086;33.418;2023-04-15T09:55:08;100960.69;;;7.51;80.57
74578;BME280;63173;49.086;33.418;2023-04-15T09:57:35;100956.91;;;7.52;80.49
74578;BME280;63173;49.086;33.418;2023-04-15T10:00:04;100961.94;;;7.87;79.24
74578;BME280;63173;49.086;33.418;2023-04-15T10:02:32;100964.84;;;7.58;79.52
74578;BME280;63173;49.086;33.418;2023-04-15T10:04:58;100968.72;;;7.46;79.87
74578;BME280;63173;49.086;33.418;2023-04-15T10:07:24;100970.69;;;7.50;80.03
74578;BME280;63173;49.086;33.418;2023-04-15T10:09:50;100966.91;;;7.51;80.48
74578;BME280;63173;49.086;33.418;2023-04-15T10:12:17;100973.69;;;7.54;80.90
74578;BME280;63173;49.086;33.418;2023-04-15T10:14:44;100992.41;;;7.39;80.84
74578;BME280;63173;49.086;33.418;2023-04-15T10:17:13;100992.19;;;7.84;79.53
74578;BME280;63173;49.086;33.418;2023-04-15T10:19:42;100992.63;;;8.19;78.93
74578;BME280;63173;49.086;33.418;2023-04-15T10:22:08;101000.31;;;8.27;78.41
74578;BME280;63173;49.086;33.418;2023-04-15T10:24:33;100999.66;;;8.20;77.53
74578;BME280;63173;49.086;33.418;2023-04-15T10:26:59;100991.22;;;7.68;79.27
74578;BME280;63173;49.086;33.418;2023-04-15T10:29:28;100990.63;;;7.66;79.84
74578;BME280;63173;49.086;33.418;2023-04-15T10:31:58;100992.28;;;7.89;78.98
74578;BME280;63173;49.086;33.418;2023-04-15T10:34:24;100995.34;;;7.76;79.57
74578;BME280;63173;49.086;33.418;2023-04-15T10:36:50;100997.03;;;7.60;79.26
74578;BME280;63173;49.086;33.418;2023-04-15T10:39:38;100995.78;;;7.68;79.83
74578;BME280;63173;49.086;33.418;2023-04-15T10:42:15;101004.16;;;7.88;79.58
74578;BME280;63173;49.086;33.418;2023-04-15T10:44:42;100997.97;;;7.71;79.95
74578;BME280;63173;49.086;33.418;2023-04-15T10:47:14;100997.50;;;7.74;79.11
74578;BME280;63173;49.086;33.418;2023-04-15T10:49:57;101004.94;;;7.67;79.83
74578;BME280;63173;49.086;33.418;2023-04-15T10:52:25;101002.34;;;7.72;79.57
74578;BME280;63173;49.086;33.418;2023-04-15T10:55:02;101007.84;;;8.03;79.12
74578;BME280;63173;49.086;33.418;2023-04-15T10:57:34;101001.13;;;8.06;78.93
74578;BME280;63173;49.086;33.418;2023-04-15T11:00:11;101000.31;;;8.05;78.52
74578;BME280;63173;49.086;33.418;2023-04-15T11:05:22;101001.53;;;7.93;79.36
74578;BME280;63173;49.086;33.418;2023-04-15T11:07:52;100996.41;;;7.53;79.63
74578;BME280;63173;49.086;33.418;2023-04-15T11:12:56;101005.91;;;7.99;79.35
74578;BME280;63173;49.086;33.418;2023-04-15T11:15:32;100995.81;;;8.16;79.27
74578;BME280;63173;49.086;33.418;2023-04-15T11:20:38;100995.63;;;8.44;77.71
74578;BME280;63173;49.086;33.418;2023-04-15T11:23:05;100993.91;;;8.11;77.78
74578;BME280;63173;49.086;33.418;2023-04-15T11:25:33;100978.09;;;8.03;78.41
74578;BME280;63173;49.086;33.418;2023-04-15T11:28:00;100995.25;;;7.87;78.96
74578;BME280;63173;49.086;33.418;2023-04-15T11:30:28;100990.59;;;8.31;77.54
74578;BME280;63173;49.086;33.418;2023-04-15T11:32:57;101006.28;;;7.86;78.03
74578;BME280;63173;49.086;33.418;2023-04-15T11:35:23;100988.53;;;8.16;77.90
74578;BME280;63173;49.086;33.418;2023-04-15T11:37:48;100997.22;;;7.97;79.07
74578;BME280;63173;49.086;33.418;2023-04-15T11:40:15;100993.81;;;8.28;77.85
74578;BME280;63173;49.086;33.418;2023-04-15T11:42:44;100993.19;;;7.99;78.22
74578;BME280;63173;49.086;33.418;2023-04-15T11:45:12;100997.38;;;8.28;77.73
74578;BME280;63173;49.086;33.418;2023-04-15T11:47:39;100995.41;;;8.02;79.44
74578;BME280;63173;49.086;33.418;2023-04-15T11:50:21;100984.75;;;8.17;79.72
74578;BME280;63173;49.086;33.418;2023-04-15T11:52:57;100980.28;;;8.54;78.75
74578;BME280;63173;49.086;33.418;2023-04-15T11:55:24;100979.53;;;8.32;77.74
74578;BME280;63173;49.086;33.418;2023-04-15T11:58:04;100983.41;;;8.20;78.51
74578;BME280;63173;49.086;33.418;2023-04-15T12:00:31;100975.94;;;8.53;78.89
74578;BME280;63173;49.086;33.418;2023-04-15T12:03:12;100985.16;;;8.52;77.65
74578;BME280;63173;49.086;33.418;2023-04-15T12:06:13;100981.56;;;8.47;77.66
74578;BME280;63173;49.086;33.418;2023-04-15T12:11:38;100966.66;;;8.44;77.76
74578;BME280;63173;49.086;33.418;2023-04-15T12:14:17;100953.91;;;8.18;77.75
74578;BME280;63173;49.086;33.418;2023-04-15T12:16:45;100958.22;;;8.73;76.48
74578;BME280;63173;49.086;33.418;2023-04-15T12:19:12;100956.66;;;8.45;78.20
74578;BME280;63173;49.086;33.418;2023-04-15T12:21:42;100962.31;;;8.43;77.59
74578;BME280;63173;49.086;33.418;2023-04-15T12:24:10;100955.56;;;8.46;78.56
74578;BME280;63173;49.086;33.418;2023-04-15T12:26:37;100956.91;;;8.22;78.70
74578;BME280;63173;49.086;33.418;2023-04-15T12:29:07;100947.06;;;8.32;80.15
74578;BME280;63173;49.086;33.418;2023-04-15T12:31:34;100946.09;;;8.22;80.27
74578;BME280;63173;49.086;33.418;2023-04-15T12:34:00;100942.16;;;8.29;79.94
74578;BME280;63173;49.086;33.418;2023-04-15T12:36:26;100936.56;;;8.14;79.74
74578;BME280;63173;49.086;33.418;2023-04-15T12:38:52;100942.97;;;8.30;79.91
74578;BME280;63173;49.086;33.418;2023-04-15T12:41:19;100942.19;;;8.08;79.64
74578;BME280;63173;49.086;33.418;2023-04-15T12:43:45;100939.25;;;8.14;79.97
74578;BME280;63173;49.086;33.418;2023-04-15T12:46:12;100934.50;;;8.00;78.93
74578;BME280;63173;49.086;33.418;2023-04-15T12:48:38;100937.97;;;8.22;79.16
74578;BME280;63173;49.086;33.418;2023-04-15T12:51:04;100932.78;;;8.15;78.25
74578;BME280;63173;49.086;33.418;2023-04-15T12:53:29;100934.13;;;8.39;78.45
74578;BME280;63173;49.086;33.418;2023-04-15T12:55:55;100929.66;;;8.02;78.84
74578;BME280;63173;49.086;33.418;2023-04-15T12:58:20;100920.19;;;8.26;78.88
74578;BME280;63173;49.086;33.418;2023-04-15T13:00:46;100936.06;;;8.17;79.20